Time;durP1;ratioP1;P1;durP2;ratioP2;P2;SDS_P1;SDS_P2;PMS_P1;PMS_P2;Temp;Humidity;BMP_temperature;BMP_pressure;BME280_temperature;BME280_humidity;BME280_pressure;Samples;Min_cycle;Max_cycle;Signal;HPM_P1;HPM_P2
2022/03/22 00:02:01;;;;;;;44.80;20.98;;;;;;;13.43;62.65;102393.81;7383724;19;20046;-75
2022/03/22 00:04:28;;;;;;;49.20;19.75;;;;;;;13.36;62.97;102391.84;7382818;19;20017;-75
2022/03/22 00:06:54;;;;;;;43.70;20.05;;;;;;;13.37;63.18;102388.22;7378705;19;20015;-76
2022/03/22 00:09:22;;;;;;;45.55;19.85;;;;;;;13.36;63.28;102384.72;7383073;19;20102;-75
2022/03/22 00:11:50;;;;;;;45.70;21.17;;;;;;;13.37;64.18;102386.41;7381526;19;20361;-77
2022/03/22 00:14:17;;;;;;;50.75;22.00;;;;;;;13.38;63.86;102390.72;7384335;19;20019;-75
2022/03/22 00:17:09;;;;;;;47.35;21.38;;;;;;;13.38;63.44;102384.59;7383695;19;20268;-76
2022/03/22 00:19:55;;;;;;;50.78;21.42;;;;;;;13.36;64.21;102389.22;7379793;19;20301;-75
2022/03/22 00:22:24;;;;;;;45.10;20.90;;;;;;;13.33;63.50;102385.00;7378987;19;20011;-76
2022/03/22 00:24:51;;;;;;;49.20;23.95;;;;;;;13.36;63.88;102390.03;7382269;19;20023;-76
2022/03/22 00:27:18;;;;;;;54.85;22.83;;;;;;;13.35;64.12;102390.16;7378691;19;20018;-75
2022/03/22 00:29:45;;;;;;;50.17;22.38;;;;;;;13.34;63.84;102393.78;7379473;19;20397;-75
2022/03/22 00:32:12;;;;;;;51.20;22.73;;;;;;;13.26;64.38;102382.03;7383965;19;20467;-77
2022/03/22 00:34:44;;;;;;;57.70;23.10;;;;;;;13.27;64.68;102380.25;7378078;19;20031;-77
2022/03/22 00:37:14;;;;;;;54.50;22.02;;;;;;;13.23;64.29;102395.53;7381849;19;20033;-75
2022/03/22 00:39:43;;;;;;;49.28;21.02;;;;;;;13.21;64.85;102393.97;7380080;19;20326;-77
2022/03/22 00:42:11;;;;;;;50.90;23.60;;;;;;;13.21;64.73;102381.59;7379288;19;20044;-75
2022/03/22 00:44:38;;;;;;;50.55;23.25;;;;;;;13.22;64.28;102388.56;7380935;19;20442;-76
2022/03/22 00:47:09;;;;;;;51.03;23.33;;;;;;;13.19;65.10;102391.50;7382053;19;20115;-76
2022/03/22 00:49:36;;;;;;;52.08;22.85;;;;;;;13.16;64.77;102394.38;7378177;19;20078;-75
2022/03/22 00:52:04;;;;;;;47.38;22.13;;;;;;;13.13;64.78;102385.88;7381090;19;20033;-78
2022/03/22 00:54:33;;;;;;;52.45;23.25;;;;;;;13.11;65.19;102395.69;7383228;19;20017;-77
2022/03/22 00:57:02;;;;;;;58.38;24.67;;;;;;;13.11;64.83;102387.78;7380616;19;20474;-75
2022/03/22 01:02:21;;;;;;;51.70;22.90;;;;;;;13.08;64.73;102388.03;7379000;19;20024;-77
2022/03/22 01:04:48;;;;;;;57.78;23.55;;;;;;;13.06;65.18;102387.31;7378716;19;20470;-76
2022/03/22 01:07:15;;;;;;;54.90;22.77;;;;;;;12.97;65.46;102380.19;7377626;19;20081;-76
2022/03/22 01:09:42;;;;;;;53.25;24.40;;;;;;;12.96;66.46;102387.28;7380463;19;20031;-76
2022/03/22 01:12:09;;;;;;;54.83;23.65;;;;;;;12.97;66.28;102382.81;7381355;19;20028;-75
2022/03/22 01:14:37;;;;;;;51.97;23.40;;;;;;;12.99;65.89;102383.53;7380899;19;20454;-75
2022/03/22 01:17:09;;;;;;;57.80;25.17;;;;;;;12.98;66.74;102379.22;7378579;19;20043;-75
2022/03/22 01:19:38;;;;;;;51.25;23.55;;;;;;;12.98;66.33;102373.94;7379450;19;20377;-77
2022/03/22 01:22:08;;;;;;;57.75;25.85;;;;;;;12.96;66.44;102378.50;7380487;19;20027;-75
2022/03/22 01:24:35;;;;;;;56.25;25.23;;;;;;;12.98;67.35;102373.94;7378258;19;20109;-76
2022/03/22 01:27:09;;;;;;;55.30;23.85;;;;;;;12.94;66.77;102369.88;7389028;19;20014;-76
2022/03/22 01:29:37;;;;;;;63.95;25.60;;;;;;;12.88;67.26;102368.59;7386889;19;20010;-76
2022/03/22 01:32:05;;;;;;;55.72;24.52;;;;;;;12.90;67.36;102364.00;7385607;19;20014;-76
2022/03/22 01:34:32;;;;;;;56.47;24.25;;;;;;;12.87;67.14;102364.28;7385858;19;20007;-76
2022/03/22 01:37:02;;;;;;;56.90;24.25;;;;;;;12.86;67.96;102358.16;7385590;19;20010;-75
2022/03/22 01:39:34;;;;;;;55.42;22.73;;;;;;;12.88;67.25;102354.53;7385699;19;20011;-75
2022/03/22 01:42:02;;;;;;;55.72;24.27;;;;;;;12.89;67.29;102357.06;7383975;19;20092;-76
2022/03/22 01:44:29;;;;;;;59.72;26.50;;;;;;;12.88;67.92;102355.38;7384603;19;20031;-76
2022/03/22 01:47:01;;;;;;;56.10;24.90;;;;;;;12.91;67.43;102352.47;7389016;19;20037;-75
2022/03/22 01:49:35;;;;;;;62.10;26.00;;;;;;;12.94;66.89;102354.88;7384031;19;20014;-77
2022/03/22 01:52:04;;;;;;;61.15;26.73;;;;;;;12.93;67.54;102347.06;7385488;19;20070;-75
2022/03/22 01:54:31;;;;;;;61.10;25.67;;;;;;;12.91;67.46;102351.63;7384786;19;20086;-75
2022/03/22 01:57:00;;;;;;;61.85;25.58;;;;;;;12.89;68.45;102346.50;7387025;19;20017;-75
2022/03/22 01:59:34;;;;;;;63.10;27.10;;;;;;;12.91;67.43;102354.28;7385435;19;20003;-75
2022/03/22 02:07:39;;;;;;;64.75;27.35;;;;;;;12.85;67.75;102342.41;7386045;19;20082;-76
2022/03/22 02:10:06;;;;;;;60.05;27.15;;;;;;;12.83;67.65;102347.00;7386639;19;20027;-75
2022/03/22 02:12:33;;;;;;;67.68;27.23;;;;;;;12.79;67.92;102345.59;7386617;19;20324;-76
2022/03/22 02:15:01;;;;;;;67.57;29.27;;;;;;;12.72;68.15;102347.06;7387835;19;20015;-75
2022/03/22 02:17:28;;;;;;;66.28;27.75;;;;;;;12.68;69.05;102343.03;7385312;19;20078;-77
2022/03/22 02:19:56;;;;;;;69.10;27.08;;;;;;;12.61;68.57;102332.13;7384549;19;20332;-75
2022/03/22 02:22:31;;;;;;;71.03;29.67;;;;;;;12.54;69.94;102338.91;7380165;19;20543;-77
2022/03/22 02:24:58;;;;;;;68.35;27.70;;;;;;;12.50;69.55;102337.47;7383810;19;20674;-75
2022/03/22 02:27:28;;;;;;;66.93;26.95;;;;;;;12.46;69.54;102333.41;7388644;19;20075;-76
2022/03/22 02:29:55;;;;;;;67.10;28.25;;;;;;;12.48;70.74;102334.13;7384133;19;20021;-75
2022/03/22 02:32:24;;;;;;;71.93;28.63;;;;;;;12.44;70.07;102327.44;7385653;19;20521;-76
2022/03/22 02:34:51;;;;;;;70.13;28.52;;;;;;;12.42;69.95;102327.56;7383987;19;20010;-75
2022/03/22 02:37:18;;;;;;;70.13;29.75;;;;;;;12.40;70.60;102331.28;7384777;19;20027;-75
2022/03/22 02:39:45;;;;;;;72.75;28.33;;;;;;;12.39;70.48;102330.44;7381339;19;20058;-75
2022/03/22 02:42:12;;;;;;;65.57;26.95;;;;;;;12.36;70.29;102325.41;7381909;19;20082;-76
2022/03/22 02:44:39;;;;;;;69.65;27.85;;;;;;;12.34;70.92;102322.06;7389137;19;20421;-76
2022/03/22 02:47:09;;;;;;;66.97;29.48;;;;;;;12.35;71.12;102321.09;7387531;19;20006;-75
2022/03/22 02:49:36;;;;;;;75.40;29.02;;;;;;;12.33;70.97;102325.69;7383970;19;20105;-75
2022/03/22 02:52:03;;;;;;;72.28;29.02;;;;;;;12.33;72.10;102333.59;7382139;19;20018;-75
2022/03/22 02:54:31;;;;;;;71.53;29.88;;;;;;;12.37;71.77;102342.09;7379648;19;20010;-75
2022/03/22 02:57:00;;;;;;;71.05;26.83;;;;;;;12.35;71.33;102334.31;7384107;19;20027;-75
2022/03/22 02:59:33;;;;;;;70.15;30.65;;;;;;;12.36;72.20;102337.78;7385319;19;20014;-76
2022/03/22 03:02:01;;;;;;;71.97;28.67;;;;;;;12.37;71.86;102339.47;7382123;19;20017;-75
2022/03/22 03:04:28;;;;;;;67.07;27.42;;;;;;;12.35;71.57;102326.38;7381374;19;20373;-77
2022/03/22 03:06:55;;;;;;;74.53;31.30;;;;;;;12.33;72.13;102330.13;7380740;19;20118;-75
2022/03/22 03:09:22;;;;;;;72.35;28.85;;;;;;;12.34;72.22;102332.63;7383415;19;20094;-75
2022/03/22 03:11:49;;;;;;;71.22;28.65;;;;;;;12.34;71.75;102327.34;7380717;19;20023;-74
2022/03/22 03:17:09;;;;;;;73.72;29.90;;;;;;;12.35;71.63;102317.63;7386061;19;20093;-77
2022/03/22 03:19:37;;;;;;;71.22;29.42;;;;;;;12.36;71.65;102319.31;7381021;19;20013;-75
2022/03/22 03:22:05;;;;;;;73.18;29.95;;;;;;;12.31;72.01;102322.31;7378207;19;20090;-77
2022/03/22 03:24:32;;;;;;;67.28;30.95;;;;;;;12.33;71.84;102328.31;7383308;19;20010;-75
2022/03/22 03:26:59;;;;;;;68.47;29.80;;;;;;;12.36;71.85;102325.41;7384182;19;20010;-75
2022/03/22 03:29:27;;;;;;;72.22;31.50;;;;;;;12.33;71.89;102320.41;7382882;19;20082;-75
2022/03/22 03:31:58;;;;;;;72.72;29.98;;;;;;;12.31;72.58;102319.69;7384325;19;20033;-76
2022/03/22 03:34:25;;;;;;;71.90;29.45;;;;;;;12.32;72.28;102315.25;7381408;19;20284;-76
2022/03/22 03:36:52;;;;;;;74.65;30.42;;;;;;;12.31;72.34;102317.03;7382984;19;20466;-77
2022/03/22 03:39:19;;;;;;;79.78;32.22;;;;;;;12.33;72.38;102314.28;7382335;19;20221;-75
2022/03/22 03:41:57;;;;;;;71.75;29.17;;;;;;;12.32;72.06;102315.25;7379399;19;20010;-77
2022/03/22 03:47:14;;;;;;;71.20;29.63;;;;;;;12.29;72.38;102312.88;7381820;19;20560;-76
2022/03/22 03:49:49;;;;;;;77.70;30.95;;;;;;;12.27;72.30;102317.44;7385325;19;20022;-75
2022/03/22 03:52:20;;;;;;;83.15;32.13;;;;;;;12.29;73.15;102310.25;7383820;19;20046;-75
2022/03/22 03:54:48;;;;;;;82.43;32.83;;;;;;;12.30;72.34;102312.72;7381766;19;20078;-75
2022/03/22 03:57:15;;;;;;;82.68;31.40;;;;;;;12.24;72.33;102313.22;7382249;19;20010;-76
2022/03/22 03:59:43;;;;;;;86.07;33.38;;;;;;;12.21;72.68;102316.13;7384409;19;20015;-75
2022/03/22 04:02:10;;;;;;;78.05;32.25;;;;;;;12.18;72.74;102321.69;7379426;19;20026;-77
2022/03/22 04:04:39;;;;;;;74.43;30.90;;;;;;;12.18;72.90;102324.31;7382586;19;20014;-76
2022/03/22 04:07:09;;;;;;;79.05;31.67;;;;;;;12.21;73.40;102329.31;7379177;19;20492;-75
2022/03/22 04:09:38;;;;;;;77.93;30.90;;;;;;;12.20;73.02;102329.44;7380867;19;20018;-75
2022/03/22 04:12:06;;;;;;;79.43;34.33;;;;;;;12.17;73.00;102327.06;7377916;19;20082;-75
2022/03/22 04:14:33;;;;;;;76.25;31.10;;;;;;;12.18;74.27;102332.22;7380383;19;20013;-77
2022/03/22 04:17:00;;;;;;;68.20;29.88;;;;;;;12.19;73.29;102341.78;7378998;19;20015;-75
2022/03/22 04:19:28;;;;;;;73.82;32.60;;;;;;;12.19;73.38;102333.88;7383638;19;20418;-76
2022/03/22 04:22:00;;;;;;;79.35;32.15;;;;;;;12.21;73.25;102333.75;7376184;19;20078;-75
2022/03/22 04:24:27;;;;;;;75.68;32.05;;;;;;;12.23;73.17;102339.75;7377547;19;20010;-75
2022/03/22 04:32:41;;;;;;;78.65;33.90;;;;;;;12.19;73.44;102352.34;7382455;19;20027;-75
2022/03/22 04:32:42;;;;;;;78.63;31.23;;;;;;;12.19;73.84;102336.53;7382468;19;20108;-75
2022/03/22 04:35:10;;;;;;;77.70;32.92;;;;;;;12.17;73.85;102338.47;7378140;19;20459;-74
2022/03/22 04:37:37;;;;;;;78.82;32.83;;;;;;;12.18;74.25;102340.16;7379722;19;20010;-75
2022/03/22 04:40:05;;;;;;;70.82;30.38;;;;;;;12.17;73.50;102333.19;7379977;19;20027;-76
2022/03/22 04:42:32;;;;;;;84.13;34.40;;;;;;;12.13;73.98;102329.13;7379825;19;20090;-75
2022/03/22 04:44:59;;;;;;;77.75;32.05;;;;;;;12.12;74.15;102324.81;7386432;19;20019;-76
2022/03/22 04:47:26;;;;;;;81.20;31.90;;;;;;;12.15;73.83;102323.72;7378905;19;20512;-76
2022/03/22 04:49:53;;;;;;;83.82;33.90;;;;;;;12.14;74.12;102316.78;7378707;19;20014;-74
2022/03/22 04:57:52;;;;;;;82.70;33.10;;;;;;;12.07;74.71;102324.34;7382248;19;20039;-76
2022/03/22 05:00:20;;;;;;;80.15;32.22;;;;;;;12.07;74.47;102326.16;7379447;19;20018;-76
2022/03/22 05:02:50;;;;;;;76.25;32.65;;;;;;;12.05;74.15;102318.34;7378611;19;20459;-76
2022/03/22 05:06:25;;;;;;;88.53;35.10;;;;;;;12.03;75.34;102316.81;7382835;19;20439;-76
2022/03/22 05:08:04;;;;;;;78.03;32.60;;;;;;;12.02;74.49;102312.50;7377501;19;20049;-77
2022/03/22 05:10:34;;;;;;;78.40;33.30;;;;;;;12.05;74.52;102320.16;7378720;19;20450;-77
2022/03/22 05:13:02;;;;;;;82.97;34.10;;;;;;;12.00;74.81;102331.06;7378505;19;20099;-74
2022/03/22 05:15:29;;;;;;;81.32;33.67;;;;;;;11.98;74.63;102333.88;7382088;19;20090;-75
2022/03/22 05:17:56;;;;;;;87.68;34.50;;;;;;;11.96;74.88;102334.94;7379143;19;20018;-76
2022/03/22 05:20:24;;;;;;;89.35;35.08;;;;;;;11.97;75.58;102333.97;7379687;19;20658;-77
2022/03/22 05:22:51;;;;;;;85.97;33.97;;;;;;;11.97;75.14;102348.00;7375375;19;20066;-75
2022/03/22 05:25:19;;;;;;;80.72;35.95;;;;;;;11.98;74.76;102347.06;7381284;19;20430;-75
2022/03/22 05:27:46;;;;;;;89.93;34.70;;;;;;;12.02;75.37;102344.16;7379488;19;20078;-75
2022/03/22 05:30:13;;;;;;;84.20;33.83;;;;;;;12.00;74.97;102344.28;7381615;19;20019;-76
2022/03/22 05:32:41;;;;;;;82.97;36.38;;;;;;;11.98;74.79;102346.22;7378704;19;20033;-75
2022/03/22 05:35:08;;;;;;;84.85;33.63;;;;;;;11.96;75.46;102334.94;7379746;19;20015;-75
2022/03/22 05:37:35;;;;;;;83.43;32.95;;;;;;;11.97;75.18;102334.81;7377375;19;20021;-75
2022/03/22 05:40:03;;;;;;;79.47;35.38;;;;;;;11.99;75.43;102342.59;7378901;19;20551;-75
2022/03/22 05:42:33;;;;;;;79.93;33.55;;;;;;;12.00;76.03;102349.53;7378570;19;20018;-75
2022/03/22 05:45:00;;;;;;;78.80;34.05;;;;;;;12.02;75.02;102346.78;7380599;19;20526;-74
2022/03/22 05:47:27;;;;;;;86.72;34.83;;;;;;;12.03;75.66;102341.41;7377663;19;20015;-76
2022/03/22 05:49:55;;;;;;;77.13;32.65;;;;;;;12.03;75.38;102338.75;7380479;19;20518;-76
2022/03/22 05:52:22;;;;;;;87.70;32.35;;;;;;;11.99;75.07;102339.94;7381133;19;20010;-75
2022/03/22 05:54:49;;;;;;;80.15;32.92;;;;;;;12.00;75.66;102346.91;7374653;19;20021;-76
2022/03/22 05:57:16;;;;;;;85.22;36.13;;;;;;;11.98;75.75;102348.84;7376863;19;20039;-76
2022/03/22 05:59:43;;;;;;;83.40;34.72;;;;;;;11.96;75.33;102358.69;7380822;19;20033;-75
2022/03/22 06:02:10;;;;;;;85.85;36.78;;;;;;;11.98;76.01;102357.59;7377988;19;20035;-76
2022/03/22 06:04:37;;;;;;;80.75;33.63;;;;;;;12.00;76.26;102358.31;7378451;19;20089;-76
2022/03/22 06:07:04;;;;;;;82.55;33.67;;;;;;;12.04;75.35;102345.69;7380184;19;20056;-76
2022/03/22 06:09:31;;;;;;;79.53;33.97;;;;;;;12.07;75.59;102347.25;7379664;19;20031;-76
2022/03/22 06:11:59;;;;;;;79.32;32.92;;;;;;;12.09;75.04;102345.34;7387180;19;20094;-76
2022/03/22 06:14:26;;;;;;;82.43;33.22;;;;;;;12.07;74.92;102345.47;7387865;19;20111;-76
2022/03/22 06:16:53;;;;;;;84.22;32.28;;;;;;;12.07;75.63;102348.09;7384975;19;20078;-76
2022/03/22 06:19:20;;;;;;;77.78;31.73;;;;;;;12.05;75.40;102346.53;7386660;19;20082;-75
2022/03/22 06:21:48;;;;;;;79.50;33.15;;;;;;;12.08;75.02;102346.28;7384984;19;20018;-77
2022/03/22 06:24:17;;;;;;;85.70;33.78;;;;;;;12.04;75.58;102353.59;7383350;19;20704;-76
2022/03/22 06:26:44;;;;;;;82.18;33.28;;;;;;;12.03;75.74;102357.22;7386223;19;20015;-75
2022/03/22 06:29:11;;;;;;;78.68;33.47;;;;;;;12.04;75.19;102358.06;7388414;19;20332;-77
2022/03/22 06:31:38;;;;;;;84.47;34.13;;;;;;;12.06;75.76;102353.50;7390179;19;20156;-75
2022/03/22 06:34:05;;;;;;;80.32;32.58;;;;;;;12.10;75.66;102365.47;7386108;19;20033;-75
2022/03/22 06:36:32;;;;;;;78.80;32.08;;;;;;;12.11;75.35;102356.59;7386375;19;20321;-77
2022/03/22 06:38:59;;;;;;;75.25;33.53;;;;;;;12.13;75.62;102365.22;7383696;19;20050;-76
2022/03/22 06:41:27;;;;;;;77.28;33.72;;;;;;;12.12;75.25;102353.84;7386192;19;20041;-76
2022/03/22 06:43:54;;;;;;;81.45;34.38;;;;;;;12.16;74.89;102352.63;7386468;19;20010;-77
2022/03/22 06:46:22;;;;;;;84.70;35.05;;;;;;;12.18;75.19;102365.69;7384537;19;20350;-76
2022/03/22 06:48:49;;;;;;;76.97;33.88;;;;;;;12.17;75.38;102366.66;7385160;19;20027;-75
2022/03/22 06:51:23;;;;;;;81.28;33.63;;;;;;;12.18;75.10;102366.53;7385462;19;20387;-75
2022/03/22 06:53:50;;;;;;;78.82;33.22;;;;;;;12.20;75.59;102366.38;7387259;19;20015;-75
2022/03/22 06:56:17;;;;;;;79.97;34.13;;;;;;;12.19;75.24;102357.63;7382318;19;20010;-76
2022/03/22 06:58:44;;;;;;;81.32;34.65;;;;;;;12.17;75.49;102362.22;7388223;19;20031;-75
2022/03/22 07:01:11;;;;;;;83.85;34.55;;;;;;;12.24;75.38;102359.91;7386736;19;20051;-75
2022/03/22 07:03:43;;;;;;;84.35;33.58;;;;;;;12.24;74.88;102360.72;7383480;19;20021;-77
2022/03/22 07:06:10;;;;;;;79.20;35.42;;;;;;;12.27;75.09;102372.84;7386434;19;20033;-75
2022/03/22 07:08:37;;;;;;;78.97;34.38;;;;;;;12.29;75.56;102374.38;7384395;19;20027;-74
2022/03/22 07:13:52;;;;;;;78.28;32.67;;;;;;;12.31;75.33;102366.34;7388530;19;20003;-76
2022/03/22 07:16:19;;;;;;;82.97;33.38;;;;;;;12.33;75.53;102362.63;7383751;19;20027;-74
2022/03/22 07:18:46;;;;;;;79.68;33.30;;;;;;;12.37;75.01;102369.34;7384933;19;20002;-77
2022/03/22 07:21:15;;;;;;;89.15;37.70;;;;;;;12.43;75.71;102374.13;7380517;19;20016;-76
2022/03/22 07:23:42;;;;;;;73.15;31.90;;;;;;;12.41;75.05;102381.31;7380307;19;20079;-75
2022/03/22 07:26:09;;;;;;;77.13;31.65;;;;;;;12.46;74.68;102378.28;7381613;19;20531;-77
2022/03/22 07:28:36;;;;;;;73.85;32.28;;;;;;;12.50;74.94;102384.16;7383713;19;20011;-77
2022/03/22 07:31:05;;;;;;;74.07;31.20;;;;;;;12.53;74.42;102386.56;7382853;19;20022;-76
2022/03/22 07:33:32;;;;;;;81.22;31.63;;;;;;;12.57;73.94;102387.97;7384743;19;20014;-75
2022/03/22 07:35:59;;;;;;;79.03;33.65;;;;;;;12.54;74.56;102378.50;7384073;19;20019;-76
2022/03/22 07:38:26;;;;;;;76.35;32.13;;;;;;;12.58;74.27;102382.56;7382164;19;20015;-77
2022/03/22 07:40:53;;;;;;;82.28;33.17;;;;;;;12.62;74.56;102391.91;7380591;19;20027;-76
2022/03/22 07:43:20;;;;;;;78.97;31.77;;;;;;;12.80;74.32;102389.53;7381857;19;20022;-76
2022/03/22 07:45:47;;;;;;;72.53;30.85;;;;;;;13.10;72.82;102399.34;7381067;19;20032;-74
2022/03/22 07:48:16;;;;;;;72.82;32.40;;;;;;;13.36;72.38;102390.03;7382797;19;20016;-77
2022/03/22 07:53:28;;;;;;;77.05;33.58;;;;;;;13.67;71.43;102401.41;7382362;19;20025;-75
2022/03/22 07:55:55;;;;;;;71.38;31.42;;;;;;;13.66;70.51;102400.59;7383925;19;20019;-75
2022/03/22 07:58:26;;;;;;;80.97;33.72;;;;;;;13.67;70.64;102399.63;7382202;19;20051;-76
2022/03/22 08:00:53;;;;;;;69.13;30.95;;;;;;;13.84;69.76;102399.94;7379874;19;20086;-76
2022/03/22 08:03:20;;;;;;;80.50;34.88;;;;;;;14.16;69.23;102394.47;7381147;19;20015;-77
2022/03/22 08:05:48;;;;;;;76.97;33.75;;;;;;;14.49;69.14;102408.16;7382796;19;20026;-75
2022/03/22 08:08:15;;;;;;;71.53;31.38;;;;;;;14.51;66.95;102406.22;7379207;19;20021;-75
2022/03/22 08:10:59;;;;;;;75.53;32.53;;;;;;;14.51;68.06;102403.59;7383159;19;20021;-77
2022/03/22 08:13:26;;;;;;;75.80;31.73;;;;;;;14.53;67.57;102406.06;7384776;19;20035;-75
2022/03/22 08:15:53;;;;;;;75.05;32.20;;;;;;;14.51;67.61;102414.19;7381347;19;20035;-74
2022/03/22 08:18:20;;;;;;;71.55;31.60;;;;;;;14.47;67.49;102404.84;7382482;19;20198;-75
2022/03/22 08:20:47;;;;;;;70.07;31.35;;;;;;;14.47;67.27;102411.94;7382362;19;20542;-75
2022/03/22 08:23:14;;;;;;;69.00;31.38;;;;;;;14.55;67.59;102404.13;7379193;19;20025;-77
2022/03/22 08:25:49;;;;;;;69.72;30.00;;;;;;;14.64;67.12;102403.28;7383959;19;20014;-74
2022/03/22 08:28:21;;;;;;;71.60;31.08;;;;;;;15.19;67.18;102406.97;7381956;19;20042;-76
2022/03/22 08:30:48;;;;;;;63.60;29.73;;;;;;;15.72;63.86;102404.56;7382329;19;20017;-76
2022/03/22 08:33:17;;;;;;;68.85;28.52;;;;;;;16.00;62.34;102417.84;7381301;19;20462;-75
2022/03/22 08:35:47;;;;;;;71.57;30.63;;;;;;;15.90;63.90;102409.09;7380935;19;20045;-75
2022/03/22 08:38:16;;;;;;;62.75;27.60;;;;;;;15.73;62.85;102408.91;7381537;19;20022;-77
2022/03/22 08:40:43;;;;;;;62.10;25.50;;;;;;;15.65;62.59;102411.44;7381696;19;20014;-76
2022/03/22 08:43:11;;;;;;;65.65;27.60;;;;;;;15.63;63.18;102407.28;7380492;19;20018;-75
2022/03/22 08:45:38;;;;;;;62.63;29.40;;;;;;;15.56;63.03;102404.34;7382203;19;20124;-76
2022/03/22 08:48:10;;;;;;;63.88;28.13;;;;;;;15.48;63.57;102412.19;7378775;19;20018;-75
2022/03/22 08:50:40;;;;;;;61.07;26.40;;;;;;;15.50;63.62;102414.69;7382654;19;20006;-74
2022/03/22 08:53:10;;;;;;;;;;;;;;;15.48;64.34;102409.53;7382407;19;20452;-75
2022/03/22 08:55:45;;;;;;;62.88;26.65;;;;;;;15.43;64.30;102411.78;7378872;19;19914;-75
2022/03/22 08:58:13;;;;;;;65.47;27.80;;;;;;;15.46;64.86;102410.66;7382308;19;20018;-75
2022/03/22 09:00:40;;;;;;;75.43;36.25;;;;;;;15.51;67.17;102411.91;7379576;19;20118;-75
2022/03/22 09:03:10;;;;;;;62.58;26.23;;;;;;;15.56;65.33;102407.00;7351672;19;20122;-75
2022/03/22 09:08:25;;;;;;;55.20;24.98;;;;;;;15.64;64.14;102419.56;7377640;19;20017;-77
2022/03/22 09:10:52;;;;;;;53.72;22.88;;;;;;;15.68;63.07;102418.28;7377377;19;20057;-75
2022/03/22 09:13:20;;;;;;;54.25;23.67;;;;;;;15.70;63.89;102416.28;7378974;19;20011;-75
2022/03/22 09:15:51;;;;;;;59.17;25.83;;;;;;;15.75;63.42;102419.34;7382270;19;20010;-75
2022/03/22 09:18:22;;;;;;;54.27;21.50;;;;;;;15.77;62.82;102420.03;7378830;19;20022;-75
2022/03/22 09:20:51;;;;;;;55.58;22.77;;;;;;;15.78;62.89;102414.59;7383803;19;20078;-76
2022/03/22 09:23:19;;;;;;;53.17;21.92;;;;;;;15.77;62.54;102412.91;7377593;19;20018;-75
2022/03/22 09:25:47;;;;;;;55.22;23.23;;;;;;;15.82;63.03;102408.00;7381870;19;20018;-76
2022/03/22 09:28:14;;;;;;;53.25;23.50;;;;;;;15.87;62.53;102406.72;7379156;19;20011;-75
2022/03/22 09:30:41;;;;;;;59.10;22.60;;;;;;;15.93;63.17;102417.59;7382068;19;20034;-77
2022/03/22 09:33:11;;;;;;;48.33;21.65;;;;;;;15.93;62.74;102420.25;7378618;19;20015;-76
2022/03/22 09:35:38;;;;;;;46.70;22.13;;;;;;;15.96;62.40;102413.78;7376855;19;20011;-76
2022/03/22 09:38:06;;;;;;;53.38;24.48;;;;;;;16.03;62.08;102414.88;7377038;19;20033;-76
2022/03/22 09:40:33;;;;;;;56.83;23.38;;;;;;;16.05;61.90;102411.06;7376055;19;20027;-77
2022/03/22 09:43:00;;;;;;;54.38;23.23;;;;;;;16.08;62.35;102409.94;7380407;19;20014;-76
2022/03/22 09:45:31;;;;;;;51.30;22.45;;;;;;;16.06;61.87;102420.72;7375443;19;20014;-77
2022/03/22 09:47:59;;;;;;;51.15;21.85;;;;;;;16.11;61.39;102413.13;7387935;19;20129;-77
2022/03/22 09:53:15;;;;;;;51.45;22.40;;;;;;;16.15;61.71;102414.50;7386012;19;20116;-77
2022/03/22 09:55:42;;;;;;;45.08;20.58;;;;;;;16.18;61.48;102419.53;7385052;19;20022;-76
2022/03/22 09:58:09;;;;;;;47.08;20.92;;;;;;;16.23;61.59;102411.09;7388336;19;20006;-77
2022/03/22 10:00:38;;;;;;;49.17;21.17;;;;;;;16.24;60.77;102416.28;7386929;19;20011;-76
2022/03/22 10:03:05;;;;;;;44.22;20.75;;;;;;;16.31;61.03;102415.66;7386639;19;20040;-76
2022/03/22 10:05:32;;;;;;;48.38;22.15;;;;;;;16.36;61.79;102413.38;7384677;19;20011;-76
2022/03/22 10:08:03;;;;;;;49.90;19.98;;;;;;;16.35;60.75;102412.56;7385108;19;20074;-77
2022/03/22 10:10:53;;;;;;;46.08;20.98;;;;;;;16.39;60.70;102405.97;7387056;19;20138;-76
2022/03/22 10:13:20;;;;;;;48.15;21.08;;;;;;;16.46;61.11;102407.00;7387301;19;20011;-77
2022/03/22 10:15:47;;;;;;;46.53;21.00;;;;;;;16.49;60.87;102408.53;7384109;19;20014;-78
2022/03/22 10:18:21;;;;;;;46.45;19.85;;;;;;;16.55;61.01;102397.31;7383388;19;20043;-75
2022/03/22 10:21:01;;;;;;;47.22;20.90;;;;;;;16.61;60.49;102407.34;7386958;19;20013;-76
2022/03/22 10:23:30;;;;;;;63.40;28.98;;;;;;;16.65;59.84;102408.72;7383280;19;20431;-76
2022/03/22 10:26:04;;;;;;;52.08;23.10;;;;;;;16.70;60.10;102401.13;7385125;19;20020;-77
2022/03/22 10:28:32;;;;;;;56.00;25.17;;;;;;;16.76;60.40;102403.13;7385620;19;20013;-76
2022/03/22 10:31:00;;;;;;;49.72;20.42;;;;;;;16.88;58.99;102403.72;7387922;19;20018;-77
2022/03/22 10:33:27;;;;;;;48.28;20.33;;;;;;;16.90;59.31;102393.78;7382604;19;20070;-76
2022/03/22 10:35:54;;;;;;;42.95;19.52;;;;;;;16.94;59.37;102401.28;7384298;19;20015;-77
2022/03/22 10:38:23;;;;;;;46.00;19.35;;;;;;;17.01;59.32;102405.03;7383234;19;20033;-77
2022/03/22 10:40:51;;;;;;;47.03;20.10;;;;;;;17.04;59.18;102398.53;7382063;19;20502;-77
2022/03/22 10:43:22;;;;;;;43.00;19.27;;;;;;;17.08;59.00;102398.06;7386543;19;20002;-77
2022/03/22 10:45:50;;;;;;;40.63;18.75;;;;;;;17.11;58.79;102396.94;7382083;19;20014;-77
2022/03/22 10:48:24;;;;;;;42.60;18.63;;;;;;;17.16;58.57;102399.97;7387294;19;20309;-76
2022/03/22 10:50:52;;;;;;;39.55;18.42;;;;;;;17.24;58.73;102393.84;7388068;19;20099;-76
2022/03/22 10:53:23;;;;;;;41.83;16.58;;;;;;;17.30;58.09;102394.03;7385027;19;20467;-77
2022/03/22 10:55:57;;;;;;;38.05;16.80;;;;;;;17.38;57.28;102393.25;7386640;19;20351;-77
2022/03/22 10:58:26;;;;;;;38.10;16.27;;;;;;;17.44;57.78;102398.78;7385067;19;20032;-77
2022/03/22 11:00:55;;;;;;;41.70;18.10;;;;;;;17.49;57.95;102398.28;7386140;19;20078;-76
2022/03/22 11:03:25;;;;;;;36.13;16.42;;;;;;;17.52;56.87;102395.34;7382892;19;20762;-77
2022/03/22 11:05:54;;;;;;;36.90;16.50;;;;;;;17.51;57.14;102391.00;7381403;19;20018;-77
2022/03/22 11:08:23;;;;;;;38.13;17.08;;;;;;;17.53;56.78;102389.00;7381897;19;20017;-76
2022/03/22 11:10:54;;;;;;;40.20;17.73;;;;;;;17.55;57.41;102392.34;7386626;19;20019;-76
2022/03/22 11:13:25;;;;;;;39.20;16.70;;;;;;;17.57;57.71;102392.19;7382585;19;20010;-76
2022/03/22 11:15:52;;;;;;;35.67;16.52;;;;;;;17.61;56.99;102381.09;7386461;19;20026;-76
2022/03/22 11:18:22;;;;;;;42.50;18.48;;;;;;;17.63;56.97;102388.91;7382846;19;20127;-76
2022/03/22 11:20:58;;;;;;;38.42;16.50;;;;;;;17.69;57.08;102386.44;7387206;19;20105;-76
2022/03/22 11:23:27;;;;;;;36.13;17.45;;;;;;;17.68;57.22;102386.59;7381054;19;20010;-77
2022/03/22 11:26:08;;;;;;;35.45;17.05;;;;;;;17.76;57.07;102386.63;7384659;19;20029;-77
2022/03/22 11:28:35;;;;;;;40.58;17.02;;;;;;;17.83;57.00;102385.81;7386203;19;20322;-77
2022/03/22 11:31:04;;;;;;;39.28;15.95;;;;;;;17.87;56.59;102386.34;7384223;19;20483;-77
2022/03/22 11:36:29;;;;;;;36.42;16.30;;;;;;;18.00;56.70;102385.84;7383428;19;20087;-77
2022/03/22 11:38:57;;;;;;;34.60;14.68;;;;;;;18.08;56.51;102392.03;7385015;19;20014;-78
2022/03/22 11:44:32;;;;;;;30.02;13.15;;;;;;;18.17;54.28;102384.91;7383975;19;20110;-76
2022/03/22 11:47:03;;;;;;;32.05;13.82;;;;;;;18.23;54.95;102384.25;7382885;19;20043;-76
2022/03/22 11:49:45;;;;;;;27.30;12.32;;;;;;;18.33;54.00;102379.59;7381044;19;20018;-77
2022/03/22 11:52:13;;;;;;;32.35;13.02;;;;;;;18.37;54.82;102376.44;7382622;19;20014;-77
2022/03/22 11:54:41;;;;;;;23.85;11.10;;;;;;;18.39;53.99;102379.75;7379161;19;20030;-76
2022/03/22 11:57:19;;;;;;;22.63;9.98;;;;;;;18.43;53.27;102377.63;7379177;19;20322;-76